sensor_id;sensor_type;location;lat;lon;timestamp;P1;durP1;ratioP1;P2;durP2;ratioP2
12367;SDS011;6248;49.812;6.620;2024-01-10T00:01:47;7.13;;;4.00;;
12367;SDS011;6248;49.812;6.620;2024-01-10T00:04:14;6.53;;;4.03;;
12367;SDS011;6248;49.812;6.620;2024-01-10T00:06:42;6.13;;;3.90;;
12367;SDS011;6248;49.812;6.620;2024-01-10T00:09:09;6.80;;;4.23;;
12367;SDS011;6248;49.812;6.620;2024-01-10T00:11:37;7.20;;;4.30;;
12367;SDS011;6248;49.812;6.620;2024-01-10T00:14:04;7.07;;;4.43;;
12367;SDS011;6248;49.812;6.620;2024-01-10T00:16:31;6.43;;;4.10;;
12367;SDS011;6248;49.812;6.620;2024-01-10T00:19:00;5.77;;;3.83;;
12367;SDS011;6248;49.812;6.620;2024-01-10T00:21:27;6.93;;;4.37;;
12367;SDS011;6248;49.812;6.620;2024-01-10T00:23:54;7.00;;;4.10;;
12367;SDS011;6248;49.812;6.620;2024-01-10T00:26:21;4.53;;;3.67;;
12367;SDS011;6248;49.812;6.620;2024-01-10T00:28:48;6.50;;;4.20;;
12367;SDS011;6248;49.812;6.620;2024-01-10T00:31:16;6.87;;;4.33;;
12367;SDS011;6248;49.812;6.620;2024-01-10T00:33:43;6.73;;;4.67;;
12367;SDS011;6248;49.812;6.620;2024-01-10T00:36:11;6.20;;;4.37;;
12367;SDS011;6248;49.812;6.620;2024-01-10T00:38:39;6.57;;;4.33;;
12367;SDS011;6248;49.812;6.620;2024-01-10T00:41:06;7.63;;;4.40;;
12367;SDS011;6248;49.812;6.620;2024-01-10T00:43:33;6.10;;;4.30;;
12367;SDS011;6248;49.812;6.620;2024-01-10T00:46:01;7.90;;;5.00;;
12367;SDS011;6248;49.812;6.620;2024-01-10T00:48:28;8.80;;;5.10;;
12367;SDS011;6248;49.812;6.620;2024-01-10T00:50:55;6.13;;;4.77;;
12367;SDS011;6248;49.812;6.620;2024-01-10T00:53:23;6.33;;;4.47;;
12367;SDS011;6248;49.812;6.620;2024-01-10T00:55:50;6.30;;;4.37;;
12367;SDS011;6248;49.812;6.620;2024-01-10T00:58:17;7.23;;;4.00;;
12367;SDS011;6248;49.812;6.620;2024-01-10T01:00:44;6.57;;;3.70;;
12367;SDS011;6248;49.812;6.620;2024-01-10T01:03:12;6.87;;;4.53;;
12367;SDS011;6248;49.812;6.620;2024-01-10T01:05:39;6.00;;;4.13;;
12367;SDS011;6248;49.812;6.620;2024-01-10T01:08:06;7.83;;;4.40;;
12367;SDS011;6248;49.812;6.620;2024-01-10T01:10:34;6.47;;;4.23;;
12367;SDS011;6248;49.812;6.620;2024-01-10T01:13:01;5.87;;;3.80;;
12367;SDS011;6248;49.812;6.620;2024-01-10T01:15:29;6.03;;;4.23;;
12367;SDS011;6248;49.812;6.620;2024-01-10T01:17:56;6.03;;;4.07;;
12367;SDS011;6248;49.812;6.620;2024-01-10T01:20:23;7.77;;;4.20;;
12367;SDS011;6248;49.812;6.620;2024-01-10T01:22:50;6.53;;;4.23;;
12367;SDS011;6248;49.812;6.620;2024-01-10T01:25:18;6.60;;;4.77;;
12367;SDS011;6248;49.812;6.620;2024-01-10T01:27:46;7.00;;;4.53;;
12367;SDS011;6248;49.812;6.620;2024-01-10T01:30:13;5.57;;;4.20;;
12367;SDS011;6248;49.812;6.620;2024-01-10T01:32:40;5.83;;;3.97;;
12367;SDS011;6248;49.812;6.620;2024-01-10T01:35:07;5.40;;;4.13;;
12367;SDS011;6248;49.812;6.620;2024-01-10T01:37:34;6.17;;;4.60;;
12367;SDS011;6248;49.812;6.620;2024-01-10T01:40:02;8.37;;;4.80;;
12367;SDS011;6248;49.812;6.620;2024-01-10T01:42:29;5.47;;;4.00;;
12367;SDS011;6248;49.812;6.620;2024-01-10T01:44:58;7.20;;;4.30;;
12367;SDS011;6248;49.812;6.620;2024-01-10T01:47:25;6.73;;;4.40;;
12367;SDS011;6248;49.812;6.620;2024-01-10T01:49:53;5.33;;;4.23;;
12367;SDS011;6248;49.812;6.620;2024-01-10T01:52:20;5.77;;;4.27;;
12367;SDS011;6248;49.812;6.620;2024-01-10T01:54:47;12.17;;;4.27;;
12367;SDS011;6248;49.812;6.620;2024-01-10T01:57:14;6.80;;;4.47;;
12367;SDS011;6248;49.812;6.620;2024-01-10T01:59:42;6.57;;;4.63;;
12367;SDS011;6248;49.812;6.620;2024-01-10T02:02:10;5.97;;;4.10;;
12367;SDS011;6248;49.812;6.620;2024-01-10T02:04:38;9.03;;;4.50;;
12367;SDS011;6248;49.812;6.620;2024-01-10T02:07:05;6.23;;;4.53;;
12367;SDS011;6248;49.812;6.620;2024-01-10T02:09:32;6.37;;;4.17;;
12367;SDS011;6248;49.812;6.620;2024-01-10T02:11:59;8.97;;;5.00;;
12367;SDS011;6248;49.812;6.620;2024-01-10T02:14:28;6.43;;;4.60;;
12367;SDS011;6248;49.812;6.620;2024-01-10T02:16:56;6.93;;;4.60;;
12367;SDS011;6248;49.812;6.620;2024-01-10T02:19:24;7.97;;;4.53;;
12367;SDS011;6248;49.812;6.620;2024-01-10T02:21:54;6.23;;;4.60;;
12367;SDS011;6248;49.812;6.620;2024-01-10T02:24:21;6.50;;;4.50;;
12367;SDS011;6248;49.812;6.620;2024-01-10T02:26:50;5.63;;;4.20;;
12367;SDS011;6248;49.812;6.620;2024-01-10T02:29:17;6.93;;;4.40;;
12367;SDS011;6248;49.812;6.620;2024-01-10T02:31:44;9.03;;;5.47;;
12367;SDS011;6248;49.812;6.620;2024-01-10T02:34:11;8.27;;;4.83;;
12367;SDS011;6248;49.812;6.620;2024-01-10T02:36:38;7.67;;;4.80;;
12367;SDS011;6248;49.812;6.620;2024-01-10T02:39:06;7.23;;;4.67;;
12367;SDS011;6248;49.812;6.620;2024-01-10T02:41:33;7.33;;;4.63;;
12367;SDS011;6248;49.812;6.620;2024-01-10T02:44:01;6.03;;;4.47;;
12367;SDS011;6248;49.812;6.620;2024-01-10T02:46:28;6.17;;;4.33;;
12367;SDS011;6248;49.812;6.620;2024-01-10T02:48:56;6.53;;;4.60;;
12367;SDS011;6248;49.812;6.620;2024-01-10T02:51:23;7.10;;;5.00;;
12367;SDS011;6248;49.812;6.620;2024-01-10T02:53:50;7.03;;;4.47;;
12367;SDS011;6248;49.812;6.620;2024-01-10T02:56:17;8.27;;;4.97;;
12367;SDS011;6248;49.812;6.620;2024-01-10T02:58:45;6.70;;;4.87;;
12367;SDS011;6248;49.812;6.620;2024-01-10T03:01:16;6.63;;;4.87;;
12367;SDS011;6248;49.812;6.620;2024-01-10T03:03:43;9.47;;;4.93;;
12367;SDS011;6248;49.812;6.620;2024-01-10T03:06:10;7.37;;;5.03;;
12367;SDS011;6248;49.812;6.620;2024-01-10T03:08:37;6.63;;;4.33;;
12367;SDS011;6248;49.812;6.620;2024-01-10T03:11:04;6.70;;;4.27;;
12367;SDS011;6248;49.812;6.620;2024-01-10T03:13:32;6.70;;;4.67;;
12367;SDS011;6248;49.812;6.620;2024-01-10T03:15:59;6.40;;;4.70;;
12367;SDS011;6248;49.812;6.620;2024-01-10T03:18:27;7.13;;;4.70;;
12367;SDS011;6248;49.812;6.620;2024-01-10T03:20:54;7.23;;;4.87;;
12367;SDS011;6248;49.812;6.620;2024-01-10T03:23:22;7.37;;;4.70;;
12367;SDS011;6248;49.812;6.620;2024-01-10T03:25:49;8.37;;;5.17;;
12367;SDS011;6248;49.812;6.620;2024-01-10T03:28:16;9.20;;;5.00;;
12367;SDS011;6248;49.812;6.620;2024-01-10T03:30:44;7.93;;;4.93;;
12367;SDS011;6248;49.812;6.620;2024-01-10T03:33:11;7.03;;;4.43;;
12367;SDS011;6248;49.812;6.620;2024-01-10T03:35:39;6.53;;;4.70;;
12367;SDS011;6248;49.812;6.620;2024-01-10T03:38:06;8.40;;;5.10;;
12367;SDS011;6248;49.812;6.620;2024-01-10T03:40:34;8.93;;;5.07;;
12367;SDS011;6248;49.812;6.620;2024-01-10T03:43:01;6.20;;;4.73;;
12367;SDS011;6248;49.812;6.620;2024-01-10T03:45:28;7.47;;;5.30;;
12367;SDS011;6248;49.812;6.620;2024-01-10T03:47:55;7.43;;;5.10;;
12367;SDS011;6248;49.812;6.620;2024-01-10T03:50:22;7.07;;;4.97;;
12367;SDS011;6248;49.812;6.620;2024-01-10T03:52:51;7.60;;;5.03;;
12367;SDS011;6248;49.812;6.620;2024-01-10T03:55:18;8.33;;;5.20;;
12367;SDS011;6248;49.812;6.620;2024-01-10T03:57:45;7.83;;;5.37;;
12367;SDS011;6248;49.812;6.620;2024-01-10T04:00:12;7.37;;;4.90;;
12367;SDS011;6248;49.812;6.620;2024-01-10T04:02:39;9.87;;;5.43;;
12367;SDS011;6248;49.812;6.620;2024-01-10T04:05:07;7.40;;;4.90;;
12367;SDS011;6248;49.812;6.620;2024-01-10T04:07:37;7.70;;;5.10;;
12367;SDS011;6248;49.812;6.620;2024-01-10T04:10:06;6.93;;;4.93;;
12367;SDS011;6248;49.812;6.620;2024-01-10T04:12:35;8.53;;;5.43;;
12367;SDS011;6248;49.812;6.620;2024-01-10T04:15:02;8.97;;;5.80;;
12367;SDS011;6248;49.812;6.620;2024-01-10T04:17:29;8.73;;;5.60;;
12367;SDS011;6248;49.812;6.620;2024-01-10T04:19:57;9.00;;;5.67;;
12367;SDS011;6248;49.812;6.620;2024-01-10T04:22:24;8.63;;;5.37;;
12367;SDS011;6248;49.812;6.620;2024-01-10T04:24:51;8.93;;;5.43;;
12367;SDS011;6248;49.812;6.620;2024-01-10T04:27:20;8.57;;;5.70;;
12367;SDS011;6248;49.812;6.620;2024-01-10T04:29:47;8.23;;;5.57;;
12367;SDS011;6248;49.812;6.620;2024-01-10T04:32:14;7.57;;;5.23;;
12367;SDS011;6248;49.812;6.620;2024-01-10T04:34:41;10.63;;;6.80;;
12367;SDS011;6248;49.812;6.620;2024-01-10T04:37:08;13.50;;;8.93;;
12367;SDS011;6248;49.812;6.620;2024-01-10T04:39:35;12.10;;;7.70;;
12367;SDS011;6248;49.812;6.620;2024-01-10T04:42:05;10.00;;;6.60;;
12367;SDS011;6248;49.812;6.620;2024-01-10T04:44:34;10.80;;;6.67;;
12367;SDS011;6248;49.812;6.620;2024-01-10T04:47:01;8.97;;;6.30;;
12367;SDS011;6248;49.812;6.620;2024-01-10T04:49:28;10.33;;;6.57;;
12367;SDS011;6248;49.812;6.620;2024-01-10T04:51:55;9.63;;;6.30;;
12367;SDS011;6248;49.812;6.620;2024-01-10T04:54:22;9.13;;;5.73;;
12367;SDS011;6248;49.812;6.620;2024-01-10T04:56:49;10.97;;;6.20;;
12367;SDS011;6248;49.812;6.620;2024-01-10T04:59:16;8.77;;;5.57;;
12367;SDS011;6248;49.812;6.620;2024-01-10T05:01:45;9.40;;;6.30;;
12367;SDS011;6248;49.812;6.620;2024-01-10T05:04:12;9.90;;;5.93;;
12367;SDS011;6248;49.812;6.620;2024-01-10T05:06:39;10.20;;;6.43;;
12367;SDS011;6248;49.812;6.620;2024-01-10T05:09:07;8.70;;;5.43;;
12367;SDS011;6248;49.812;6.620;2024-01-10T05:11:34;9.47;;;6.13;;
12367;SDS011;6248;49.812;6.620;2024-01-10T05:14:01;10.37;;;6.40;;
12367;SDS011;6248;49.812;6.620;2024-01-10T05:16:29;10.80;;;6.50;;
12367;SDS011;6248;49.812;6.620;2024-01-10T05:18:57;10.23;;;6.43;;
12367;SDS011;6248;49.812;6.620;2024-01-10T05:21:28;10.87;;;6.63;;
12367;SDS011;6248;49.812;6.620;2024-01-10T05:23:55;9.00;;;6.73;;
12367;SDS011;6248;49.812;6.620;2024-01-10T05:26:22;10.80;;;7.10;;
12367;SDS011;6248;49.812;6.620;2024-01-10T05:28:50;11.07;;;6.80;;
12367;SDS011;6248;49.812;6.620;2024-01-10T05:31:17;9.10;;;6.47;;
12367;SDS011;6248;49.812;6.620;2024-01-10T05:33:44;8.97;;;6.03;;
12367;SDS011;6248;49.812;6.620;2024-01-10T05:36:13;9.57;;;5.97;;
12367;SDS011;6248;49.812;6.620;2024-01-10T05:38:40;10.80;;;6.33;;
12367;SDS011;6248;49.812;6.620;2024-01-10T05:41:07;10.37;;;6.67;;
12367;SDS011;6248;49.812;6.620;2024-01-10T05:43:35;10.07;;;6.27;;
12367;SDS011;6248;49.812;6.620;2024-01-10T05:46:02;11.43;;;6.50;;
12367;SDS011;6248;49.812;6.620;2024-01-10T05:48:30;9.07;;;6.20;;
12367;SDS011;6248;49.812;6.620;2024-01-10T05:50:58;10.30;;;6.30;;
12367;SDS011;6248;49.812;6.620;2024-01-10T05:53:28;9.43;;;6.77;;
12367;SDS011;6248;49.812;6.620;2024-01-10T05:55:55;9.27;;;5.90;;
12367;SDS011;6248;49.812;6.620;2024-01-10T05:58:22;9.77;;;6.63;;
12367;SDS011;6248;49.812;6.620;2024-01-10T06:00:49;10.27;;;7.03;;
12367;SDS011;6248;49.812;6.620;2024-01-10T06:03:17;9.97;;;6.83;;
12367;SDS011;6248;49.812;6.620;2024-01-10T06:05:46;8.87;;;6.10;;
12367;SDS011;6248;49.812;6.620;2024-01-10T06:08:13;11.13;;;7.07;;
12367;SDS011;6248;49.812;6.620;2024-01-10T06:10:42;10.30;;;6.70;;
12367;SDS011;6248;49.812;6.620;2024-01-10T06:13:09;9.47;;;6.30;;
12367;SDS011;6248;49.812;6.620;2024-01-10T06:15:39;10.10;;;6.27;;
12367;SDS011;6248;49.812;6.620;2024-01-10T06:18:06;10.73;;;6.70;;
12367;SDS011;6248;49.812;6.620;2024-01-10T06:20:34;10.87;;;6.47;;
12367;SDS011;6248;49.812;6.620;2024-01-10T06:23:04;9.97;;;6.83;;
12367;SDS011;6248;49.812;6.620;2024-01-10T06:25:31;9.93;;;6.60;;
12367;SDS011;6248;49.812;6.620;2024-01-10T06:28:00;10.63;;;6.53;;
12367;SDS011;6248;49.812;6.620;2024-01-10T06:30:28;11.60;;;6.90;;
12367;SDS011;6248;49.812;6.620;2024-01-10T06:32:57;9.70;;;6.47;;
12367;SDS011;6248;49.812;6.620;2024-01-10T06:35:25;11.87;;;7.33;;
12367;SDS011;6248;49.812;6.620;2024-01-10T06:37:52;11.47;;;7.17;;
12367;SDS011;6248;49.812;6.620;2024-01-10T06:40:20;13.00;;;6.80;;
12367;SDS011;6248;49.812;6.620;2024-01-10T06:42:49;10.90;;;7.10;;
12367;SDS011;6248;49.812;6.620;2024-01-10T06:45:18;11.53;;;7.53;;
12367;SDS011;6248;49.812;6.620;2024-01-10T06:47:45;12.53;;;8.30;;
12367;SDS011;6248;49.812;6.620;2024-01-10T06:50:12;12.13;;;7.57;;
12367;SDS011;6248;49.812;6.620;2024-01-10T06:52:39;11.73;;;7.03;;
12367;SDS011;6248;49.812;6.620;2024-01-10T06:55:07;10.30;;;6.90;;
12367;SDS011;6248;49.812;6.620;2024-01-10T06:57:35;11.60;;;7.63;;
12367;SDS011;6248;49.812;6.620;2024-01-10T07:00:02;10.70;;;6.97;;
12367;SDS011;6248;49.812;6.620;2024-01-10T07:02:37;11.30;;;6.87;;
12367;SDS011;6248;49.812;6.620;2024-01-10T07:05:06;11.43;;;7.40;;
12367;SDS011;6248;49.812;6.620;2024-01-10T07:07:34;11.37;;;7.77;;
12367;SDS011;6248;49.812;6.620;2024-01-10T07:10:01;11.67;;;7.50;;
12367;SDS011;6248;49.812;6.620;2024-01-10T07:12:30;11.43;;;6.83;;
12367;SDS011;6248;49.812;6.620;2024-01-10T07:14:57;10.37;;;6.77;;
12367;SDS011;6248;49.812;6.620;2024-01-10T07:17:28;12.70;;;7.30;;
12367;SDS011;6248;49.812;6.620;2024-01-10T07:19:59;13.40;;;8.87;;
12367;SDS011;6248;49.812;6.620;2024-01-10T07:22:26;10.80;;;7.80;;
12367;SDS011;6248;49.812;6.620;2024-01-10T07:24:53;10.83;;;7.27;;
12367;SDS011;6248;49.812;6.620;2024-01-10T07:27:22;10.30;;;7.03;;
12367;SDS011;6248;49.812;6.620;2024-01-10T07:29:49;11.30;;;7.93;;
12367;SDS011;6248;49.812;6.620;2024-01-10T07:32:18;12.33;;;7.47;;
12367;SDS011;6248;49.812;6.620;2024-01-10T07:34:45;11.70;;;7.33;;
12367;SDS011;6248;49.812;6.620;2024-01-10T07:37:14;12.57;;;7.70;;
12367;SDS011;6248;49.812;6.620;2024-01-10T07:39:41;12.27;;;7.90;;
12367;SDS011;6248;49.812;6.620;2024-01-10T07:42:09;13.63;;;8.53;;
12367;SDS011;6248;49.812;6.620;2024-01-10T07:44:36;12.97;;;8.40;;
12367;SDS011;6248;49.812;6.620;2024-01-10T07:47:04;13.67;;;7.97;;
12367;SDS011;6248;49.812;6.620;2024-01-10T07:49:32;11.53;;;8.40;;
12367;SDS011;6248;49.812;6.620;2024-01-10T07:52:00;14.33;;;9.17;;
12367;SDS011;6248;49.812;6.620;2024-01-10T07:54:29;14.40;;;9.13;;
12367;SDS011;6248;49.812;6.620;2024-01-10T07:56:57;14.07;;;9.03;;
12367;SDS011;6248;49.812;6.620;2024-01-10T07:59:24;11.70;;;8.10;;
12367;SDS011;6248;49.812;6.620;2024-01-10T08:01:55;14.47;;;9.47;;
12367;SDS011;6248;49.812;6.620;2024-01-10T08:04:23;13.03;;;8.90;;
12367;SDS011;6248;49.812;6.620;2024-01-10T08:06:51;15.87;;;10.87;;
12367;SDS011;6248;49.812;6.620;2024-01-10T08:09:19;14.97;;;10.80;;
12367;SDS011;6248;49.812;6.620;2024-01-10T08:11:47;15.23;;;10.10;;
12367;SDS011;6248;49.812;6.620;2024-01-10T08:14:14;12.70;;;8.67;;
12367;SDS011;6248;49.812;6.620;2024-01-10T08:16:42;14.07;;;10.10;;
12367;SDS011;6248;49.812;6.620;2024-01-10T08:19:10;14.83;;;9.60;;
12367;SDS011;6248;49.812;6.620;2024-01-10T08:21:38;15.07;;;10.60;;
12367;SDS011;6248;49.812;6.620;2024-01-10T08:24:06;13.83;;;9.07;;
12367;SDS011;6248;49.812;6.620;2024-01-10T08:26:33;14.53;;;9.17;;
12367;SDS011;6248;49.812;6.620;2024-01-10T08:29:03;13.10;;;8.40;;
12367;SDS011;6248;49.812;6.620;2024-01-10T08:31:31;13.20;;;8.33;;
12367;SDS011;6248;49.812;6.620;2024-01-10T08:33:58;13.00;;;8.67;;
12367;SDS011;6248;49.812;6.620;2024-01-10T08:36:26;12.20;;;8.10;;
12367;SDS011;6248;49.812;6.620;2024-01-10T08:38:54;13.03;;;8.63;;
12367;SDS011;6248;49.812;6.620;2024-01-10T08:41:21;13.80;;;8.37;;
12367;SDS011;6248;49.812;6.620;2024-01-10T08:43:48;12.57;;;8.47;;
12367;SDS011;6248;49.812;6.620;2024-01-10T08:46:17;11.87;;;8.40;;
12367;SDS011;6248;49.812;6.620;2024-01-10T08:48:46;13.33;;;8.67;;
12367;SDS011;6248;49.812;6.620;2024-01-10T08:51:13;13.47;;;8.77;;
12367;SDS011;6248;49.812;6.620;2024-01-10T08:53:42;12.70;;;8.90;;
12367;SDS011;6248;49.812;6.620;2024-01-10T08:56:09;12.23;;;8.60;;
12367;SDS011;6248;49.812;6.620;2024-01-10T08:58:36;14.83;;;8.97;;
12367;SDS011;6248;49.812;6.620;2024-01-10T09:01:04;14.17;;;9.23;;
12367;SDS011;6248;49.812;6.620;2024-01-10T09:03:34;15.50;;;9.43;;
12367;SDS011;6248;49.812;6.620;2024-01-10T09:06:04;29.20;;;12.33;;
12367;SDS011;6248;49.812;6.620;2024-01-10T09:08:32;15.23;;;9.33;;
12367;SDS011;6248;49.812;6.620;2024-01-10T09:11:00;12.53;;;8.33;;
12367;SDS011;6248;49.812;6.620;2024-01-10T09:13:28;13.07;;;8.17;;
12367;SDS011;6248;49.812;6.620;2024-01-10T09:15:56;11.70;;;8.40;;
12367;SDS011;6248;49.812;6.620;2024-01-10T09:18:23;12.10;;;8.23;;
12367;SDS011;6248;49.812;6.620;2024-01-10T09:20:52;13.33;;;8.20;;
12367;SDS011;6248;49.812;6.620;2024-01-10T09:23:19;13.40;;;8.47;;
12367;SDS011;6248;49.812;6.620;2024-01-10T09:25:47;11.20;;;7.67;;
12367;SDS011;6248;49.812;6.620;2024-01-10T09:28:14;15.60;;;8.40;;
12367;SDS011;6248;49.812;6.620;2024-01-10T09:30:42;13.90;;;7.83;;
12367;SDS011;6248;49.812;6.620;2024-01-10T09:33:09;13.13;;;8.33;;
12367;SDS011;6248;49.812;6.620;2024-01-10T09:35:37;13.20;;;8.10;;
12367;SDS011;6248;49.812;6.620;2024-01-10T09:38:06;12.90;;;8.47;;
12367;SDS011;6248;49.812;6.620;2024-01-10T09:40:33;12.50;;;8.30;;
12367;SDS011;6248;49.812;6.620;2024-01-10T09:43:00;14.10;;;9.47;;
12367;SDS011;6248;49.812;6.620;2024-01-10T09:45:28;14.30;;;9.37;;
12367;SDS011;6248;49.812;6.620;2024-01-10T09:47:56;14.40;;;9.10;;
12367;SDS011;6248;49.812;6.620;2024-01-10T09:50:23;14.10;;;8.50;;
12367;SDS011;6248;49.812;6.620;2024-01-10T09:52:52;15.63;;;9.30;;
12367;SDS011;6248;49.812;6.620;2024-01-10T09:55:21;14.83;;;8.80;;
12367;SDS011;6248;49.812;6.620;2024-01-10T09:57:48;14.90;;;9.53;;
12367;SDS011;6248;49.812;6.620;2024-01-10T10:00:16;16.57;;;10.20;;
12367;SDS011;6248;49.812;6.620;2024-01-10T10:02:43;15.60;;;10.03;;
12367;SDS011;6248;49.812;6.620;2024-01-10T10:05:14;13.57;;;9.40;;
12367;SDS011;6248;49.812;6.620;2024-01-10T10:07:45;11.87;;;8.33;;
12367;SDS011;6248;49.812;6.620;2024-01-10T10:10:13;12.20;;;7.50;;
12367;SDS011;6248;49.812;6.620;2024-01-10T10:12:45;14.57;;;8.53;;
12367;SDS011;6248;49.812;6.620;2024-01-10T10:15:14;13.43;;;8.37;;
12367;SDS011;6248;49.812;6.620;2024-01-10T10:17:42;12.60;;;8.50;;
12367;SDS011;6248;49.812;6.620;2024-01-10T10:20:13;14.60;;;9.20;;
12367;SDS011;6248;49.812;6.620;2024-01-10T10:22:50;16.47;;;8.67;;
12367;SDS011;6248;49.812;6.620;2024-01-10T10:25:25;15.93;;;9.23;;
12367;SDS011;6248;49.812;6.620;2024-01-10T10:27:54;13.50;;;9.10;;
12367;SDS011;6248;49.812;6.620;2024-01-10T10:30:21;13.67;;;9.27;;
12367;SDS011;6248;49.812;6.620;2024-01-10T10:32:49;14.33;;;9.03;;
12367;SDS011;6248;49.812;6.620;2024-01-10T10:35:17;12.43;;;8.47;;
12367;SDS011;6248;49.812;6.620;2024-01-10T10:37:47;12.23;;;8.60;;
12367;SDS011;6248;49.812;6.620;2024-01-10T10:40:15;13.73;;;8.47;;
12367;SDS011;6248;49.812;6.620;2024-01-10T10:42:43;12.90;;;8.23;;
12367;SDS011;6248;49.812;6.620;2024-01-10T10:45:15;14.07;;;9.33;;
12367;SDS011;6248;49.812;6.620;2024-01-10T10:47:43;12.13;;;8.33;;
12367;SDS011;6248;49.812;6.620;2024-01-10T10:50:17;14.87;;;9.13;;
12367;SDS011;6248;49.812;6.620;2024-01-10T10:52:47;12.10;;;8.83;;
12367;SDS011;6248;49.812;6.620;2024-01-10T10:55:15;12.83;;;8.63;;
12367;SDS011;6248;49.812;6.620;2024-01-10T10:57:44;11.57;;;8.07;;
12367;SDS011;6248;49.812;6.620;2024-01-10T11:00:12;14.40;;;8.47;;
12367;SDS011;6248;49.812;6.620;2024-01-10T11:02:42;12.60;;;8.60;;
12367;SDS011;6248;49.812;6.620;2024-01-10T11:05:10;18.53;;;10.10;;
12367;SDS011;6248;49.812;6.620;2024-01-10T11:07:38;16.00;;;9.47;;
12367;SDS011;6248;49.812;6.620;2024-01-10T11:10:08;21.07;;;10.27;;
12367;SDS011;6248;49.812;6.620;2024-01-10T11:15:25;21.07;;;11.03;;
12367;SDS011;6248;49.812;6.620;2024-01-10T11:18:08;16.63;;;10.17;;
12367;SDS011;6248;49.812;6.620;2024-01-10T11:20:42;18.53;;;10.23;;
12367;SDS011;6248;49.812;6.620;2024-01-10T11:23:27;16.93;;;10.53;;
12367;SDS011;6248;49.812;6.620;2024-01-10T11:25:59;14.97;;;9.60;;
12367;SDS011;6248;49.812;6.620;2024-01-10T11:28:30;15.40;;;9.77;;
12367;SDS011;6248;49.812;6.620;2024-01-10T11:30:57;12.57;;;9.37;;
12367;SDS011;6248;49.812;6.620;2024-01-10T11:33:31;16.17;;;10.47;;
12367;SDS011;6248;49.812;6.620;2024-01-10T11:36:08;13.60;;;9.40;;
12367;SDS011;6248;49.812;6.620;2024-01-10T11:38:43;16.33;;;10.83;;
12367;SDS011;6248;49.812;6.620;2024-01-10T11:41:10;16.83;;;10.33;;
12367;SDS011;6248;49.812;6.620;2024-01-10T11:43:39;14.77;;;10.00;;
12367;SDS011;6248;49.812;6.620;2024-01-10T11:46:09;19.30;;;10.90;;
12367;SDS011;6248;49.812;6.620;2024-01-10T11:48:42;17.20;;;10.67;;
12367;SDS011;6248;49.812;6.620;2024-01-10T11:51:11;12.07;;;9.03;;
12367;SDS011;6248;49.812;6.620;2024-01-10T11:53:40;15.83;;;10.93;;
12367;SDS011;6248;49.812;6.620;2024-01-10T11:56:10;13.90;;;8.93;;
12367;SDS011;6248;49.812;6.620;2024-01-10T11:58:52;13.93;;;9.40;;
12367;SDS011;6248;49.812;6.620;2024-01-10T12:01:20;16.43;;;10.00;;
12367;SDS011;6248;49.812;6.620;2024-01-10T12:03:49;14.33;;;10.20;;
12367;SDS011;6248;49.812;6.620;2024-01-10T12:06:18;15.33;;;9.63;;
12367;SDS011;6248;49.812;6.620;2024-01-10T12:08:46;12.70;;;8.83;;
12367;SDS011;6248;49.812;6.620;2024-01-10T12:11:13;19.47;;;11.93;;
12367;SDS011;6248;49.812;6.620;2024-01-10T12:13:40;19.13;;;11.03;;
12367;SDS011;6248;49.812;6.620;2024-01-10T12:16:08;16.23;;;10.17;;
12367;SDS011;6248;49.812;6.620;2024-01-10T12:18:35;15.53;;;10.53;;
12367;SDS011;6248;49.812;6.620;2024-01-10T12:21:03;14.93;;;10.00;;
12367;SDS011;6248;49.812;6.620;2024-01-10T12:23:30;15.13;;;9.87;;
12367;SDS011;6248;49.812;6.620;2024-01-10T12:26:01;16.53;;;10.50;;
12367;SDS011;6248;49.812;6.620;2024-01-10T12:28:28;17.70;;;11.20;;
12367;SDS011;6248;49.812;6.620;2024-01-10T12:30:55;16.90;;;10.57;;
12367;SDS011;6248;49.812;6.620;2024-01-10T12:33:23;16.97;;;10.37;;
12367;SDS011;6248;49.812;6.620;2024-01-10T12:36:08;14.13;;;9.60;;
12367;SDS011;6248;49.812;6.620;2024-01-10T12:38:36;17.07;;;10.50;;
12367;SDS011;6248;49.812;6.620;2024-01-10T12:41:03;15.67;;;10.10;;
12367;SDS011;6248;49.812;6.620;2024-01-10T12:43:31;15.50;;;9.50;;
12367;SDS011;6248;49.812;6.620;2024-01-10T12:46:05;14.77;;;9.83;;
12367;SDS011;6248;49.812;6.620;2024-01-10T12:48:32;15.90;;;9.43;;
12367;SDS011;6248;49.812;6.620;2024-01-10T12:51:01;14.00;;;9.50;;
12367;SDS011;6248;49.812;6.620;2024-01-10T12:53:34;13.53;;;9.60;;
12367;SDS011;6248;49.812;6.620;2024-01-10T12:56:02;13.50;;;9.47;;
12367;SDS011;6248;49.812;6.620;2024-01-10T12:58:29;13.77;;;9.67;;
12367;SDS011;6248;49.812;6.620;2024-01-10T13:00:56;15.73;;;10.53;;
12367;SDS011;6248;49.812;6.620;2024-01-10T13:03:23;15.60;;;10.60;;
12367;SDS011;6248;49.812;6.620;2024-01-10T13:05:51;17.00;;;10.47;;
12367;SDS011;6248;49.812;6.620;2024-01-10T13:08:18;20.27;;;12.93;;
12367;SDS011;6248;49.812;6.620;2024-01-10T13:10:46;15.83;;;9.90;;
12367;SDS011;6248;49.812;6.620;2024-01-10T13:13:14;13.87;;;9.23;;
12367;SDS011;6248;49.812;6.620;2024-01-10T13:15:42;17.33;;;12.27;;
12367;SDS011;6248;49.812;6.620;2024-01-10T13:18:10;16.20;;;11.77;;
12367;SDS011;6248;49.812;6.620;2024-01-10T13:20:38;17.43;;;11.40;;
12367;SDS011;6248;49.812;6.620;2024-01-10T13:23:05;16.53;;;10.93;;
12367;SDS011;6248;49.812;6.620;2024-01-10T13:25:32;17.23;;;10.50;;
12367;SDS011;6248;49.812;6.620;2024-01-10T13:28:01;14.70;;;9.80;;
12367;SDS011;6248;49.812;6.620;2024-01-10T13:30:28;13.30;;;9.83;;
12367;SDS011;6248;49.812;6.620;2024-01-10T13:32:55;13.97;;;9.17;;
12367;SDS011;6248;49.812;6.620;2024-01-10T13:35:23;14.40;;;10.13;;
12367;SDS011;6248;49.812;6.620;2024-01-10T13:37:50;15.47;;;10.47;;
12367;SDS011;6248;49.812;6.620;2024-01-10T13:40:18;21.30;;;13.13;;
12367;SDS011;6248;49.812;6.620;2024-01-10T13:42:49;13.70;;;9.37;;
12367;SDS011;6248;49.812;6.620;2024-01-10T13:45:18;15.63;;;10.40;;
12367;SDS011;6248;49.812;6.620;2024-01-10T13:47:45;15.40;;;10.30;;
12367;SDS011;6248;49.812;6.620;2024-01-10T13:50:14;15.53;;;10.30;;
12367;SDS011;6248;49.812;6.620;2024-01-10T13:52:41;17.47;;;11.60;;
12367;SDS011;6248;49.812;6.620;2024-01-10T13:55:09;31.20;;;15.20;;
12367;SDS011;6248;49.812;6.620;2024-01-10T13:57:36;18.87;;;11.93;;
12367;SDS011;6248;49.812;6.620;2024-01-10T14:00:04;17.17;;;10.27;;
12367;SDS011;6248;49.812;6.620;2024-01-10T14:02:33;16.73;;;10.97;;
12367;SDS011;6248;49.812;6.620;2024-01-10T14:05:00;21.77;;;11.97;;
12367;SDS011;6248;49.812;6.620;2024-01-10T14:07:30;19.80;;;11.53;;
12367;SDS011;6248;49.812;6.620;2024-01-10T14:09:58;18.47;;;10.13;;
12367;SDS011;6248;49.812;6.620;2024-01-10T14:12:26;15.93;;;10.27;;
12367;SDS011;6248;49.812;6.620;2024-01-10T14:14:54;15.57;;;10.00;;
12367;SDS011;6248;49.812;6.620;2024-01-10T14:17:21;13.93;;;8.97;;
12367;SDS011;6248;49.812;6.620;2024-01-10T14:19:50;18.70;;;11.30;;
12367;SDS011;6248;49.812;6.620;2024-01-10T14:22:17;15.40;;;9.70;;
12367;SDS011;6248;49.812;6.620;2024-01-10T14:24:45;14.50;;;9.50;;
12367;SDS011;6248;49.812;6.620;2024-01-10T14:27:12;14.07;;;9.33;;
12367;SDS011;6248;49.812;6.620;2024-01-10T14:29:39;19.57;;;11.07;;
12367;SDS011;6248;49.812;6.620;2024-01-10T14:32:06;17.07;;;10.20;;
12367;SDS011;6248;49.812;6.620;2024-01-10T14:34:33;18.47;;;10.97;;
12367;SDS011;6248;49.812;6.620;2024-01-10T14:37:02;17.93;;;10.27;;
12367;SDS011;6248;49.812;6.620;2024-01-10T14:39:29;19.17;;;11.40;;
12367;SDS011;6248;49.812;6.620;2024-01-10T14:41:56;21.13;;;11.93;;
12367;SDS011;6248;49.812;6.620;2024-01-10T14:44:23;19.87;;;11.23;;
12367;SDS011;6248;49.812;6.620;2024-01-10T14:46:50;18.23;;;10.83;;
12367;SDS011;6248;49.812;6.620;2024-01-10T14:49:18;21.87;;;12.07;;
12367;SDS011;6248;49.812;6.620;2024-01-10T14:51:46;19.57;;;11.90;;
12367;SDS011;6248;49.812;6.620;2024-01-10T14:54:15;17.40;;;11.77;;
12367;SDS011;6248;49.812;6.620;2024-01-10T14:56:43;17.70;;;11.10;;
12367;SDS011;6248;49.812;6.620;2024-01-10T14:59:13;15.13;;;10.23;;